Terminal Aerodrome Forecast
Issued by NWS

Home | Current Version | Previous Version | Text Only | Print | Product List | Glossary On
Versions: 1 2 3 4 5 6 7 8 9 10 11 12 13 14 15 16 17 18 19 20 21 22 23
124
FTUS43 KSGF 241725 CCA
TAFJLN
TAF COR
KJLN 241725Z 2418/2518 31010KT P6SM BKN035 OVC060
     FM250200 VRB04KT P6SM SKC
     FM251400 17006KT P6SM SKC=

USA.gov is the U.S. government's official web portal to all federal, state and local government web resources and services.